SAWU/RZA METAR and TAF weather

Enter ICAO airport designator
Station Type Date Time Source
SAWU METAR 2019/09/18 20:00 UTC NOAA

SAWU 182000Z 20020G30KT 9999 SHGR BKN025TCU SCT100 06/M05 Q0984 REVCRA


Station Type Date Time Source
SAWU Decoded METAR 2019/09/18 20:00 UTC NOAA

Santa Cruz Aerodrome, Argentina (SAWU) 50-01S 068-34W 111M
Sep 18, 2019 - 04:00 PM EDT / 2019.09.18 2000 UTC
Wind: from the SSW (200 degrees) at 23 MPH (20 KT) gusting to 35 MPH (30 KT):0
Visibility: greater than 7 mile(s):0
Sky conditions: mostly cloudy
Weather: hail showers; Towering cumulus clouds observed
Temperature: 42 F (6 C)
Dew Point: 23 F (-5 C)
Relative Humidity: 45%
Pressure (altimeter): 29.06 in. Hg (0984 hPa)
ob: SAWU 182000Z 20020G30KT 9999 SHGR BKN025TCU SCT100 06/M05 Q0984 REVCRA
cycle: 20

Station Type Date Time Source
SAWU TAF UTC NOAA

Error!

Example: see airport list